sensor_id;sensor_type;location;lat;lon;timestamp;P1;durP1;ratioP1;P2;durP2;ratioP2
16577;SDS011;8401;52.528;13.340;2023-04-15T00:01:24;26.50;;;18.87;;
16577;SDS011;8401;52.528;13.340;2023-04-15T00:03:50;25.70;;;17.83;;
16577;SDS011;8401;52.528;13.340;2023-04-15T00:06:17;26.30;;;17.40;;
16577;SDS011;8401;52.528;13.340;2023-04-15T00:08:46;27.80;;;19.23;;
16577;SDS011;8401;52.528;13.340;2023-04-15T00:11:12;26.63;;;18.00;;
16577;SDS011;8401;52.528;13.340;2023-04-15T00:13:38;25.27;;;18.03;;
16577;SDS011;8401;52.528;13.340;2023-04-15T00:16:04;25.03;;;17.53;;
16577;SDS011;8401;52.528;13.340;2023-04-15T00:18:32;25.67;;;17.80;;
16577;SDS011;8401;52.528;13.340;2023-04-15T00:20:58;27.03;;;18.33;;
16577;SDS011;8401;52.528;13.340;2023-04-15T00:23:24;27.30;;;18.83;;
16577;SDS011;8401;52.528;13.340;2023-04-15T00:25:50;28.27;;;18.63;;
16577;SDS011;8401;52.528;13.340;2023-04-15T00:28:16;28.57;;;18.53;;
16577;SDS011;8401;52.528;13.340;2023-04-15T00:30:42;27.07;;;19.17;;
16577;SDS011;8401;52.528;13.340;2023-04-15T00:33:08;26.57;;;18.33;;
16577;SDS011;8401;52.528;13.340;2023-04-15T00:35:34;27.27;;;18.70;;
16577;SDS011;8401;52.528;13.340;2023-04-15T00:38:01;30.00;;;19.83;;
16577;SDS011;8401;52.528;13.340;2023-04-15T00:40:28;32.20;;;20.13;;
16577;SDS011;8401;52.528;13.340;2023-04-15T00:42:54;27.20;;;18.47;;
16577;SDS011;8401;52.528;13.340;2023-04-15T00:45:20;29.93;;;20.33;;
16577;SDS011;8401;52.528;13.340;2023-04-15T00:47:46;28.97;;;19.93;;
16577;SDS011;8401;52.528;13.340;2023-04-15T00:50:12;30.60;;;21.30;;
16577;SDS011;8401;52.528;13.340;2023-04-15T00:52:38;32.73;;;20.73;;
16577;SDS011;8401;52.528;13.340;2023-04-15T00:55:05;28.90;;;20.87;;
16577;SDS011;8401;52.528;13.340;2023-04-15T00:57:31;29.27;;;20.07;;
16577;SDS011;8401;52.528;13.340;2023-04-15T00:59:57;31.50;;;20.90;;
16577;SDS011;8401;52.528;13.340;2023-04-15T01:02:24;30.87;;;20.70;;
16577;SDS011;8401;52.528;13.340;2023-04-15T01:04:50;31.77;;;22.10;;
16577;SDS011;8401;52.528;13.340;2023-04-15T01:07:16;33.63;;;22.13;;
16577;SDS011;8401;52.528;13.340;2023-04-15T01:09:41;30.23;;;21.20;;
16577;SDS011;8401;52.528;13.340;2023-04-15T01:12:09;33.10;;;21.13;;
16577;SDS011;8401;52.528;13.340;2023-04-15T01:14:36;35.60;;;23.07;;
16577;SDS011;8401;52.528;13.340;2023-04-15T01:17:02;32.07;;;21.70;;
16577;SDS011;8401;52.528;13.340;2023-04-15T01:19:27;35.37;;;23.20;;
16577;SDS011;8401;52.528;13.340;2023-04-15T01:21:53;31.30;;;21.20;;
16577;SDS011;8401;52.528;13.340;2023-04-15T01:24:21;32.27;;;22.17;;
16577;SDS011;8401;52.528;13.340;2023-04-15T01:26:48;31.50;;;22.03;;
16577;SDS011;8401;52.528;13.340;2023-04-15T01:29:14;34.83;;;22.80;;
16577;SDS011;8401;52.528;13.340;2023-04-15T01:31:40;34.53;;;22.60;;
16577;SDS011;8401;52.528;13.340;2023-04-15T01:34:13;34.13;;;22.53;;
16577;SDS011;8401;52.528;13.340;2023-04-15T01:36:39;32.60;;;21.43;;
16577;SDS011;8401;52.528;13.340;2023-04-15T01:39:05;35.33;;;22.13;;
16577;SDS011;8401;52.528;13.340;2023-04-15T01:41:31;33.93;;;22.97;;
16577;SDS011;8401;52.528;13.340;2023-04-15T01:43:56;34.57;;;21.77;;
16577;SDS011;8401;52.528;13.340;2023-04-15T01:46:22;38.83;;;24.07;;
16577;SDS011;8401;52.528;13.340;2023-04-15T01:48:48;35.37;;;23.37;;
16577;SDS011;8401;52.528;13.340;2023-04-15T01:51:14;35.37;;;22.07;;
16577;SDS011;8401;52.528;13.340;2023-04-15T01:53:39;36.60;;;23.37;;
16577;SDS011;8401;52.528;13.340;2023-04-15T01:56:05;41.30;;;24.37;;
16577;SDS011;8401;52.528;13.340;2023-04-15T01:58:31;36.97;;;23.90;;
16577;SDS011;8401;52.528;13.340;2023-04-15T02:00:57;37.27;;;24.13;;
16577;SDS011;8401;52.528;13.340;2023-04-15T02:03:23;36.43;;;22.77;;
16577;SDS011;8401;52.528;13.340;2023-04-15T02:05:49;34.50;;;22.57;;
16577;SDS011;8401;52.528;13.340;2023-04-15T02:08:15;34.43;;;22.23;;
16577;SDS011;8401;52.528;13.340;2023-04-15T02:10:41;33.93;;;23.00;;
16577;SDS011;8401;52.528;13.340;2023-04-15T02:13:07;35.27;;;23.00;;
16577;SDS011;8401;52.528;13.340;2023-04-15T02:15:33;38.23;;;23.53;;
16577;SDS011;8401;52.528;13.340;2023-04-15T02:17:59;34.00;;;22.60;;
16577;SDS011;8401;52.528;13.340;2023-04-15T02:20:25;37.07;;;23.70;;
16577;SDS011;8401;52.528;13.340;2023-04-15T02:22:51;38.57;;;23.63;;
16577;SDS011;8401;52.528;13.340;2023-04-15T02:25:17;40.20;;;24.27;;
16577;SDS011;8401;52.528;13.340;2023-04-15T02:27:44;37.33;;;23.83;;
16577;SDS011;8401;52.528;13.340;2023-04-15T02:30:10;37.23;;;24.93;;
16577;SDS011;8401;52.528;13.340;2023-04-15T02:32:36;35.40;;;22.53;;
16577;SDS011;8401;52.528;13.340;2023-04-15T02:35:02;40.57;;;24.27;;
16577;SDS011;8401;52.528;13.340;2023-04-15T02:37:34;37.53;;;23.47;;
16577;SDS011;8401;52.528;13.340;2023-04-15T02:40:06;37.40;;;23.43;;
16577;SDS011;8401;52.528;13.340;2023-04-15T02:42:33;40.50;;;24.07;;
16577;SDS011;8401;52.528;13.340;2023-04-15T02:44:59;34.37;;;22.77;;
16577;SDS011;8401;52.528;13.340;2023-04-15T02:47:24;36.57;;;24.30;;
16577;SDS011;8401;52.528;13.340;2023-04-15T02:49:50;41.83;;;25.10;;
16577;SDS011;8401;52.528;13.340;2023-04-15T02:52:16;37.73;;;24.27;;
16577;SDS011;8401;52.528;13.340;2023-04-15T02:54:42;37.53;;;23.23;;
16577;SDS011;8401;52.528;13.340;2023-04-15T02:57:07;38.53;;;24.67;;
16577;SDS011;8401;52.528;13.340;2023-04-15T02:59:34;37.73;;;24.60;;
16577;SDS011;8401;52.528;13.340;2023-04-15T03:02:00;41.87;;;24.57;;
16577;SDS011;8401;52.528;13.340;2023-04-15T03:04:26;41.30;;;24.37;;
16577;SDS011;8401;52.528;13.340;2023-04-15T03:06:54;38.90;;;23.07;;
16577;SDS011;8401;52.528;13.340;2023-04-15T03:09:20;36.60;;;22.67;;
16577;SDS011;8401;52.528;13.340;2023-04-15T03:11:45;35.40;;;22.87;;
16577;SDS011;8401;52.528;13.340;2023-04-15T03:14:11;34.67;;;23.17;;
16577;SDS011;8401;52.528;13.340;2023-04-15T03:16:37;38.03;;;23.93;;
16577;SDS011;8401;52.528;13.340;2023-04-15T03:19:02;33.93;;;22.33;;
16577;SDS011;8401;52.528;13.340;2023-04-15T03:21:28;37.03;;;24.13;;
16577;SDS011;8401;52.528;13.340;2023-04-15T03:23:54;35.67;;;22.83;;
16577;SDS011;8401;52.528;13.340;2023-04-15T03:26:27;34.87;;;22.27;;
16577;SDS011;8401;52.528;13.340;2023-04-15T03:28:53;33.17;;;22.70;;
16577;SDS011;8401;52.528;13.340;2023-04-15T03:31:19;36.00;;;22.67;;
16577;SDS011;8401;52.528;13.340;2023-04-15T03:33:45;31.67;;;21.77;;
16577;SDS011;8401;52.528;13.340;2023-04-15T03:36:10;34.53;;;21.77;;
16577;SDS011;8401;52.528;13.340;2023-04-15T03:38:36;38.07;;;22.43;;
16577;SDS011;8401;52.528;13.340;2023-04-15T03:41:02;34.77;;;21.50;;
16577;SDS011;8401;52.528;13.340;2023-04-15T03:43:27;35.63;;;22.83;;
16577;SDS011;8401;52.528;13.340;2023-04-15T03:45:53;33.53;;;21.50;;
16577;SDS011;8401;52.528;13.340;2023-04-15T03:48:18;33.47;;;21.47;;
16577;SDS011;8401;52.528;13.340;2023-04-15T03:50:44;28.70;;;20.90;;
16577;SDS011;8401;52.528;13.340;2023-04-15T03:53:10;32.63;;;20.87;;
16577;SDS011;8401;52.528;13.340;2023-04-15T03:55:36;34.50;;;21.50;;
16577;SDS011;8401;52.528;13.340;2023-04-15T03:58:02;35.20;;;22.07;;
16577;SDS011;8401;52.528;13.340;2023-04-15T04:00:27;32.03;;;20.97;;
16577;SDS011;8401;52.528;13.340;2023-04-15T04:02:53;36.17;;;21.63;;
16577;SDS011;8401;52.528;13.340;2023-04-15T04:05:19;32.07;;;20.57;;
16577;SDS011;8401;52.528;13.340;2023-04-15T04:07:44;32.60;;;21.33;;
16577;SDS011;8401;52.528;13.340;2023-04-15T04:10:10;31.77;;;22.07;;
16577;SDS011;8401;52.528;13.340;2023-04-15T04:12:35;31.53;;;21.50;;
16577;SDS011;8401;52.528;13.340;2023-04-15T04:15:01;30.77;;;20.67;;
16577;SDS011;8401;52.528;13.340;2023-04-15T04:17:27;32.07;;;20.43;;
16577;SDS011;8401;52.528;13.340;2023-04-15T04:19:53;34.57;;;21.00;;
16577;SDS011;8401;52.528;13.340;2023-04-15T04:22:21;30.60;;;20.97;;
16577;SDS011;8401;52.528;13.340;2023-04-15T04:24:48;29.57;;;20.00;;
16577;SDS011;8401;52.528;13.340;2023-04-15T04:27:13;30.73;;;20.70;;
16577;SDS011;8401;52.528;13.340;2023-04-15T04:29:39;32.90;;;21.10;;
16577;SDS011;8401;52.528;13.340;2023-04-15T04:32:05;30.37;;;20.33;;
16577;SDS011;8401;52.528;13.340;2023-04-15T04:34:30;27.80;;;19.97;;
16577;SDS011;8401;52.528;13.340;2023-04-15T04:36:56;29.33;;;19.93;;
16577;SDS011;8401;52.528;13.340;2023-04-15T04:39:22;29.33;;;19.40;;
16577;SDS011;8401;52.528;13.340;2023-04-15T04:41:48;30.60;;;19.50;;
16577;SDS011;8401;52.528;13.340;2023-04-15T04:44:14;28.23;;;19.70;;
16577;SDS011;8401;52.528;13.340;2023-04-15T04:46:40;29.70;;;20.17;;
16577;SDS011;8401;52.528;13.340;2023-04-15T04:49:05;28.20;;;19.50;;
16577;SDS011;8401;52.528;13.340;2023-04-15T04:51:31;26.80;;;18.97;;
16577;SDS011;8401;52.528;13.340;2023-04-15T04:53:57;28.03;;;18.73;;
16577;SDS011;8401;52.528;13.340;2023-04-15T04:56:22;30.43;;;20.63;;
16577;SDS011;8401;52.528;13.340;2023-04-15T04:58:48;28.70;;;19.30;;
16577;SDS011;8401;52.528;13.340;2023-04-15T05:01:14;30.33;;;20.03;;
16577;SDS011;8401;52.528;13.340;2023-04-15T05:03:39;30.40;;;19.87;;
16577;SDS011;8401;52.528;13.340;2023-04-15T05:06:05;30.30;;;20.47;;
16577;SDS011;8401;52.528;13.340;2023-04-15T05:08:32;27.13;;;18.33;;
16577;SDS011;8401;52.528;13.340;2023-04-15T05:10:58;28.80;;;19.57;;
16577;SDS011;8401;52.528;13.340;2023-04-15T05:13:24;26.40;;;18.90;;
16577;SDS011;8401;52.528;13.340;2023-04-15T05:15:50;29.57;;;19.97;;
16577;SDS011;8401;52.528;13.340;2023-04-15T05:18:15;30.83;;;19.10;;
16577;SDS011;8401;52.528;13.340;2023-04-15T05:20:41;29.93;;;20.13;;
16577;SDS011;8401;52.528;13.340;2023-04-15T05:23:07;25.90;;;19.07;;
16577;SDS011;8401;52.528;13.340;2023-04-15T05:25:33;26.43;;;17.87;;
16577;SDS011;8401;52.528;13.340;2023-04-15T05:27:58;25.33;;;19.20;;
16577;SDS011;8401;52.528;13.340;2023-04-15T05:30:24;29.00;;;18.63;;
16577;SDS011;8401;52.528;13.340;2023-04-15T05:32:50;32.73;;;19.03;;
16577;SDS011;8401;52.528;13.340;2023-04-15T05:35:16;25.73;;;17.40;;
16577;SDS011;8401;52.528;13.340;2023-04-15T05:37:42;24.00;;;17.67;;
16577;SDS011;8401;52.528;13.340;2023-04-15T05:40:07;27.20;;;17.87;;
16577;SDS011;8401;52.528;13.340;2023-04-15T05:42:34;22.33;;;16.80;;
16577;SDS011;8401;52.528;13.340;2023-04-15T05:45:00;28.83;;;18.40;;
16577;SDS011;8401;52.528;13.340;2023-04-15T05:47:29;24.07;;;17.07;;
16577;SDS011;8401;52.528;13.340;2023-04-15T05:49:55;24.30;;;16.80;;
16577;SDS011;8401;52.528;13.340;2023-04-15T05:52:22;23.17;;;17.00;;
16577;SDS011;8401;52.528;13.340;2023-04-15T05:54:48;20.57;;;15.87;;
16577;SDS011;8401;52.528;13.340;2023-04-15T05:57:14;25.20;;;16.50;;
16577;SDS011;8401;52.528;13.340;2023-04-15T05:59:40;21.10;;;16.10;;
16577;SDS011;8401;52.528;13.340;2023-04-15T06:02:06;23.93;;;16.70;;
16577;SDS011;8401;52.528;13.340;2023-04-15T06:04:33;25.63;;;17.33;;
16577;SDS011;8401;52.528;13.340;2023-04-15T06:06:59;22.07;;;16.20;;
16577;SDS011;8401;52.528;13.340;2023-04-15T06:09:25;20.37;;;15.70;;
16577;SDS011;8401;52.528;13.340;2023-04-15T06:11:51;23.50;;;16.13;;
16577;SDS011;8401;52.528;13.340;2023-04-15T06:14:17;21.43;;;15.47;;
16577;SDS011;8401;52.528;13.340;2023-04-15T06:16:42;19.93;;;15.77;;
16577;SDS011;8401;52.528;13.340;2023-04-15T06:19:08;21.43;;;16.30;;
16577;SDS011;8401;52.528;13.340;2023-04-15T06:21:33;22.07;;;14.80;;
16577;SDS011;8401;52.528;13.340;2023-04-15T06:23:59;17.33;;;14.00;;
16577;SDS011;8401;52.528;13.340;2023-04-15T06:26:26;21.93;;;15.27;;
16577;SDS011;8401;52.528;13.340;2023-04-15T06:28:52;19.40;;;14.53;;
16577;SDS011;8401;52.528;13.340;2023-04-15T06:31:18;19.67;;;14.20;;
16577;SDS011;8401;52.528;13.340;2023-04-15T06:33:43;18.63;;;14.70;;
16577;SDS011;8401;52.528;13.340;2023-04-15T06:36:09;18.93;;;14.67;;
16577;SDS011;8401;52.528;13.340;2023-04-15T06:38:35;15.70;;;13.13;;
16577;SDS011;8401;52.528;13.340;2023-04-15T06:41:01;19.10;;;14.80;;
16577;SDS011;8401;52.528;13.340;2023-04-15T06:43:28;17.37;;;13.00;;
16577;SDS011;8401;52.528;13.340;2023-04-15T06:45:54;18.17;;;12.70;;
16577;SDS011;8401;52.528;13.340;2023-04-15T06:48:20;17.03;;;12.80;;
16577;SDS011;8401;52.528;13.340;2023-04-15T06:50:46;16.43;;;12.57;;
16577;SDS011;8401;52.528;13.340;2023-04-15T06:53:13;16.50;;;12.67;;
16577;SDS011;8401;52.528;13.340;2023-04-15T06:55:38;15.20;;;11.57;;
16577;SDS011;8401;52.528;13.340;2023-04-15T06:58:05;16.07;;;12.00;;
16577;SDS011;8401;52.528;13.340;2023-04-15T07:00:31;16.03;;;10.93;;
16577;SDS011;8401;52.528;13.340;2023-04-15T07:02:58;15.33;;;10.73;;
16577;SDS011;8401;52.528;13.340;2023-04-15T07:05:27;13.23;;;10.50;;
16577;SDS011;8401;52.528;13.340;2023-04-15T07:07:53;12.73;;;10.40;;
16577;SDS011;8401;52.528;13.340;2023-04-15T07:10:19;13.83;;;10.30;;
16577;SDS011;8401;52.528;13.340;2023-04-15T07:12:45;11.23;;;9.47;;
16577;SDS011;8401;52.528;13.340;2023-04-15T07:15:11;11.57;;;9.93;;
16577;SDS011;8401;52.528;13.340;2023-04-15T07:17:37;11.83;;;9.33;;
16577;SDS011;8401;52.528;13.340;2023-04-15T07:20:03;13.37;;;9.50;;
16577;SDS011;8401;52.528;13.340;2023-04-15T07:22:29;11.87;;;8.77;;
16577;SDS011;8401;52.528;13.340;2023-04-15T07:24:55;11.90;;;9.80;;
16577;SDS011;8401;52.528;13.340;2023-04-15T07:27:20;11.70;;;9.70;;
16577;SDS011;8401;52.528;13.340;2023-04-15T07:29:46;12.10;;;9.53;;
16577;SDS011;8401;52.528;13.340;2023-04-15T07:32:12;13.23;;;9.33;;
16577;SDS011;8401;52.528;13.340;2023-04-15T07:34:38;10.97;;;8.30;;
16577;SDS011;8401;52.528;13.340;2023-04-15T07:37:03;14.53;;;10.20;;
16577;SDS011;8401;52.528;13.340;2023-04-15T07:39:29;12.70;;;10.23;;
16577;SDS011;8401;52.528;13.340;2023-04-15T07:41:55;18.93;;;10.97;;
16577;SDS011;8401;52.528;13.340;2023-04-15T07:44:21;17.63;;;11.50;;
16577;SDS011;8401;52.528;13.340;2023-04-15T07:46:46;11.57;;;9.77;;
16577;SDS011;8401;52.528;13.340;2023-04-15T07:49:12;13.87;;;9.83;;
16577;SDS011;8401;52.528;13.340;2023-04-15T07:51:38;16.20;;;12.23;;
16577;SDS011;8401;52.528;13.340;2023-04-15T07:54:04;12.40;;;10.40;;
16577;SDS011;8401;52.528;13.340;2023-04-15T07:56:29;13.67;;;10.80;;
16577;SDS011;8401;52.528;13.340;2023-04-15T07:58:55;14.93;;;11.20;;
16577;SDS011;8401;52.528;13.340;2023-04-15T08:01:20;14.47;;;11.10;;
16577;SDS011;8401;52.528;13.340;2023-04-15T08:03:46;13.93;;;9.90;;
16577;SDS011;8401;52.528;13.340;2023-04-15T08:06:12;23.00;;;15.83;;
16577;SDS011;8401;52.528;13.340;2023-04-15T08:08:38;16.23;;;11.40;;
16577;SDS011;8401;52.528;13.340;2023-04-15T08:11:04;14.83;;;10.37;;
16577;SDS011;8401;52.528;13.340;2023-04-15T08:13:29;14.50;;;10.87;;
16577;SDS011;8401;52.528;13.340;2023-04-15T08:18:47;13.93;;;10.63;;
16577;SDS011;8401;52.528;13.340;2023-04-15T08:21:13;12.63;;;10.53;;
16577;SDS011;8401;52.528;13.340;2023-04-15T08:23:39;13.27;;;10.50;;
16577;SDS011;8401;52.528;13.340;2023-04-15T08:26:05;13.27;;;10.40;;
16577;SDS011;8401;52.528;13.340;2023-04-15T08:28:32;12.47;;;10.80;;
16577;SDS011;8401;52.528;13.340;2023-04-15T08:30:58;13.57;;;10.57;;
16577;SDS011;8401;52.528;13.340;2023-04-15T08:33:24;14.57;;;10.43;;
16577;SDS011;8401;52.528;13.340;2023-04-15T08:35:49;13.97;;;11.07;;
16577;SDS011;8401;52.528;13.340;2023-04-15T08:38:15;13.63;;;10.90;;
16577;SDS011;8401;52.528;13.340;2023-04-15T08:40:43;14.17;;;11.20;;
16577;SDS011;8401;52.528;13.340;2023-04-15T08:43:11;13.13;;;11.33;;
16577;SDS011;8401;52.528;13.340;2023-04-15T08:45:42;14.20;;;12.40;;
16577;SDS011;8401;52.528;13.340;2023-04-15T08:48:09;17.13;;;12.77;;
16577;SDS011;8401;52.528;13.340;2023-04-15T08:50:41;15.20;;;12.37;;
16577;SDS011;8401;52.528;13.340;2023-04-15T08:53:06;14.37;;;11.87;;
16577;SDS011;8401;52.528;13.340;2023-04-15T08:55:34;14.70;;;11.27;;
16577;SDS011;8401;52.528;13.340;2023-04-15T08:58:03;12.60;;;10.97;;
16577;SDS011;8401;52.528;13.340;2023-04-15T09:00:31;14.57;;;11.50;;
16577;SDS011;8401;52.528;13.340;2023-04-15T09:02:58;14.60;;;11.50;;
16577;SDS011;8401;52.528;13.340;2023-04-15T09:05:24;15.97;;;11.57;;
16577;SDS011;8401;52.528;13.340;2023-04-15T09:07:50;13.63;;;11.23;;
16577;SDS011;8401;52.528;13.340;2023-04-15T09:10:16;15.03;;;12.10;;
16577;SDS011;8401;52.528;13.340;2023-04-15T09:12:41;16.37;;;12.20;;
16577;SDS011;8401;52.528;13.340;2023-04-15T09:15:09;15.80;;;12.67;;
16577;SDS011;8401;52.528;13.340;2023-04-15T09:17:36;15.73;;;12.53;;
16577;SDS011;8401;52.528;13.340;2023-04-15T09:20:08;14.50;;;12.57;;
16577;SDS011;8401;52.528;13.340;2023-04-15T09:22:35;17.53;;;12.30;;
16577;SDS011;8401;52.528;13.340;2023-04-15T09:25:02;14.00;;;11.63;;
16577;SDS011;8401;52.528;13.340;2023-04-15T09:27:28;13.70;;;11.23;;
16577;SDS011;8401;52.528;13.340;2023-04-15T09:29:53;15.47;;;12.07;;
16577;SDS011;8401;52.528;13.340;2023-04-15T09:32:19;15.40;;;12.43;;
16577;SDS011;8401;52.528;13.340;2023-04-15T09:34:47;15.10;;;13.00;;
16577;SDS011;8401;52.528;13.340;2023-04-15T09:37:13;14.33;;;11.40;;
16577;SDS011;8401;52.528;13.340;2023-04-15T09:39:49;13.70;;;11.37;;
16577;SDS011;8401;52.528;13.340;2023-04-15T09:42:16;14.17;;;11.57;;
16577;SDS011;8401;52.528;13.340;2023-04-15T09:44:48;13.43;;;11.57;;
16577;SDS011;8401;52.528;13.340;2023-04-15T09:47:30;17.93;;;11.40;;
16577;SDS011;8401;52.528;13.340;2023-04-15T09:49:57;15.17;;;11.90;;
16577;SDS011;8401;52.528;13.340;2023-04-15T09:52:23;13.07;;;11.00;;
16577;SDS011;8401;52.528;13.340;2023-04-15T09:54:49;12.73;;;11.03;;
16577;SDS011;8401;52.528;13.340;2023-04-15T09:57:18;15.63;;;11.17;;
16577;SDS011;8401;52.528;13.340;2023-04-15T09:59:44;13.03;;;11.57;;
16577;SDS011;8401;52.528;13.340;2023-04-15T10:02:10;14.20;;;11.73;;
16577;SDS011;8401;52.528;13.340;2023-04-15T10:04:39;13.63;;;12.07;;
16577;SDS011;8401;52.528;13.340;2023-04-15T10:07:06;14.87;;;11.57;;
16577;SDS011;8401;52.528;13.340;2023-04-15T10:09:34;15.53;;;11.80;;
16577;SDS011;8401;52.528;13.340;2023-04-15T10:12:02;13.80;;;12.30;;
16577;SDS011;8401;52.528;13.340;2023-04-15T10:14:30;14.00;;;11.80;;
16577;SDS011;8401;52.528;13.340;2023-04-15T10:16:58;13.47;;;11.67;;
16577;SDS011;8401;52.528;13.340;2023-04-15T10:19:26;14.17;;;12.37;;
16577;SDS011;8401;52.528;13.340;2023-04-15T10:21:55;15.43;;;12.83;;
16577;SDS011;8401;52.528;13.340;2023-04-15T10:24:22;14.93;;;12.67;;
16577;SDS011;8401;52.528;13.340;2023-04-15T10:26:48;13.33;;;12.00;;
16577;SDS011;8401;52.528;13.340;2023-04-15T10:29:15;16.27;;;11.77;;
16577;SDS011;8401;52.528;13.340;2023-04-15T10:31:41;16.90;;;12.93;;
16577;SDS011;8401;52.528;13.340;2023-04-15T10:34:08;16.53;;;12.17;;
16577;SDS011;8401;52.528;13.340;2023-04-15T10:36:34;16.37;;;13.23;;
16577;SDS011;8401;52.528;13.340;2023-04-15T10:39:01;14.93;;;12.47;;
16577;SDS011;8401;52.528;13.340;2023-04-15T10:41:27;15.23;;;12.87;;
16577;SDS011;8401;52.528;13.340;2023-04-15T10:49:45;12.10;;;10.77;;
16577;SDS011;8401;52.528;13.340;2023-04-15T10:51:52;13.40;;;11.90;;
16577;SDS011;8401;52.528;13.340;2023-04-15T10:59:28;12.90;;;11.47;;
16577;SDS011;8401;52.528;13.340;2023-04-15T11:02:05;13.90;;;11.60;;
16577;SDS011;8401;52.528;13.340;2023-04-15T11:07:32;14.00;;;11.40;;
16577;SDS011;8401;52.528;13.340;2023-04-15T11:09:59;13.53;;;12.10;;
16577;SDS011;8401;52.528;13.340;2023-04-15T11:12:35;14.00;;;11.30;;
16577;SDS011;8401;52.528;13.340;2023-04-15T11:20:34;14.80;;;11.30;;
16577;SDS011;8401;52.528;13.340;2023-04-15T11:23:00;13.50;;;11.20;;
16577;SDS011;8401;52.528;13.340;2023-04-15T11:25:29;12.90;;;11.03;;
16577;SDS011;8401;52.528;13.340;2023-04-15T11:27:59;14.33;;;11.93;;
16577;SDS011;8401;52.528;13.340;2023-04-15T11:30:29;18.30;;;13.50;;
16577;SDS011;8401;52.528;13.340;2023-04-15T11:32:58;15.93;;;13.57;;
16577;SDS011;8401;52.528;13.340;2023-04-15T11:35:28;13.47;;;11.37;;
16577;SDS011;8401;52.528;13.340;2023-04-15T11:37:54;13.63;;;11.40;;
16577;SDS011;8401;52.528;13.340;2023-04-15T11:40:24;14.23;;;11.63;;
16577;SDS011;8401;52.528;13.340;2023-04-15T11:43:07;13.53;;;11.07;;
16577;SDS011;8401;52.528;13.340;2023-04-15T11:45:34;12.37;;;11.07;;
16577;SDS011;8401;52.528;13.340;2023-04-15T11:48:07;14.63;;;11.20;;
16577;SDS011;8401;52.528;13.340;2023-04-15T11:50:34;16.10;;;11.77;;
16577;SDS011;8401;52.528;13.340;2023-04-15T11:53:02;13.13;;;11.73;;
16577;SDS011;8401;52.528;13.340;2023-04-15T11:55:29;12.77;;;11.23;;
16577;SDS011;8401;52.528;13.340;2023-04-15T12:00:57;12.97;;;11.00;;
16577;SDS011;8401;52.528;13.340;2023-04-15T12:03:25;12.50;;;10.90;;
16577;SDS011;8401;52.528;13.340;2023-04-15T12:06:11;12.23;;;10.33;;
16577;SDS011;8401;52.528;13.340;2023-04-15T12:09:02;13.10;;;10.50;;
16577;SDS011;8401;52.528;13.340;2023-04-15T12:11:33;13.90;;;11.33;;
16577;SDS011;8401;52.528;13.340;2023-04-15T12:16:57;13.57;;;10.90;;
16577;SDS011;8401;52.528;13.340;2023-04-15T12:19:57;12.47;;;10.83;;
16577;SDS011;8401;52.528;13.340;2023-04-15T12:22:20;14.37;;;10.83;;
16577;SDS011;8401;52.528;13.340;2023-04-15T12:24:46;12.17;;;10.87;;
16577;SDS011;8401;52.528;13.340;2023-04-15T12:27:13;13.60;;;11.47;;
16577;SDS011;8401;52.528;13.340;2023-04-15T12:29:41;14.60;;;11.77;;
16577;SDS011;8401;52.528;13.340;2023-04-15T12:37:14;14.97;;;11.57;;
16577;SDS011;8401;52.528;13.340;2023-04-15T12:39:40;14.53;;;12.63;;
16577;SDS011;8401;52.528;13.340;2023-04-15T12:42:07;13.13;;;11.23;;
16577;SDS011;8401;52.528;13.340;2023-04-15T12:44:35;13.57;;;10.43;;
16577;SDS011;8401;52.528;13.340;2023-04-15T12:47:01;11.83;;;9.13;;
16577;SDS011;8401;52.528;13.340;2023-04-15T12:49:27;11.53;;;9.43;;
16577;SDS011;8401;52.528;13.340;2023-04-15T12:51:54;12.47;;;10.10;;
16577;SDS011;8401;52.528;13.340;2023-04-15T12:54:21;11.93;;;9.57;;
16577;SDS011;8401;52.528;13.340;2023-04-15T12:56:47;11.93;;;9.93;;
16577;SDS011;8401;52.528;13.340;2023-04-15T12:59:14;12.63;;;9.93;;
16577;SDS011;8401;52.528;13.340;2023-04-15T13:01:42;13.07;;;10.53;;
16577;SDS011;8401;52.528;13.340;2023-04-15T13:04:08;12.50;;;10.67;;
16577;SDS011;8401;52.528;13.340;2023-04-15T13:06:34;13.00;;;10.53;;
16577;SDS011;8401;52.528;13.340;2023-04-15T13:09:01;12.07;;;10.20;;
16577;SDS011;8401;52.528;13.340;2023-04-15T13:11:27;12.27;;;10.97;;
16577;SDS011;8401;52.528;13.340;2023-04-15T13:13:55;12.87;;;11.23;;
16577;SDS011;8401;52.528;13.340;2023-04-15T13:16:21;12.27;;;10.83;;
16577;SDS011;8401;52.528;13.340;2023-04-15T13:18:50;12.27;;;10.73;;
16577;SDS011;8401;52.528;13.340;2023-04-15T13:21:15;10.63;;;9.53;;
16577;SDS011;8401;52.528;13.340;2023-04-15T13:23:43;11.20;;;9.97;;
16577;SDS011;8401;52.528;13.340;2023-04-15T13:26:09;13.30;;;10.23;;
16577;SDS011;8401;52.528;13.340;2023-04-15T13:28:35;10.80;;;9.57;;
16577;SDS011;8401;52.528;13.340;2023-04-15T13:31:01;11.67;;;10.17;;
16577;SDS011;8401;52.528;13.340;2023-04-15T13:33:27;11.37;;;10.17;;
16577;SDS011;8401;52.528;13.340;2023-04-15T13:35:52;13.10;;;10.80;;
16577;SDS011;8401;52.528;13.340;2023-04-15T13:38:18;10.93;;;9.80;;
16577;SDS011;8401;52.528;13.340;2023-04-15T13:40:44;11.13;;;9.60;;
16577;SDS011;8401;52.528;13.340;2023-04-15T13:43:10;11.53;;;8.60;;
16577;SDS011;8401;52.528;13.340;2023-04-15T13:45:36;12.50;;;9.97;;
16577;SDS011;8401;52.528;13.340;2023-04-15T13:48:02;11.53;;;9.70;;
16577;SDS011;8401;52.528;13.340;2023-04-15T13:50:28;10.73;;;9.53;;
16577;SDS011;8401;52.528;13.340;2023-04-15T13:52:54;12.23;;;10.33;;
16577;SDS011;8401;52.528;13.340;2023-04-15T13:55:19;12.17;;;9.90;;
16577;SDS011;8401;52.528;13.340;2023-04-15T13:57:45;11.00;;;8.87;;
16577;SDS011;8401;52.528;13.340;2023-04-15T14:00:11;12.07;;;9.70;;
16577;SDS011;8401;52.528;13.340;2023-04-15T14:02:38;11.20;;;9.50;;
16577;SDS011;8401;52.528;13.340;2023-04-15T14:05:04;13.67;;;9.77;;
16577;SDS011;8401;52.528;13.340;2023-04-15T14:07:30;10.63;;;9.53;;
16577;SDS011;8401;52.528;13.340;2023-04-15T14:09:56;9.90;;;8.80;;
16577;SDS011;8401;52.528;13.340;2023-04-15T14:12:21;11.70;;;9.57;;
16577;SDS011;8401;52.528;13.340;2023-04-15T14:14:47;11.43;;;9.90;;
16577;SDS011;8401;52.528;13.340;2023-04-15T14:17:13;12.17;;;9.93;;
16577;SDS011;8401;52.528;13.340;2023-04-15T14:19:38;11.47;;;9.90;;
16577;SDS011;8401;52.528;13.340;2023-04-15T14:22:04;13.03;;;10.10;;
16577;SDS011;8401;52.528;13.340;2023-04-15T14:24:30;10.97;;;9.40;;
16577;SDS011;8401;52.528;13.340;2023-04-15T14:26:56;9.97;;;8.93;;
16577;SDS011;8401;52.528;13.340;2023-04-15T14:29:22;10.37;;;9.07;;
16577;SDS011;8401;52.528;13.340;2023-04-15T14:31:48;10.10;;;9.10;;
16577;SDS011;8401;52.528;13.340;2023-04-15T14:34:14;11.80;;;9.73;;
16577;SDS011;8401;52.528;13.340;2023-04-15T14:36:41;10.87;;;9.67;;
16577;SDS011;8401;52.528;13.340;2023-04-15T14:39:07;10.50;;;9.17;;
16577;SDS011;8401;52.528;13.340;2023-04-15T14:41:33;10.83;;;9.63;;
16577;SDS011;8401;52.528;13.340;2023-04-15T14:43:59;11.77;;;10.27;;
16577;SDS011;8401;52.528;13.340;2023-04-15T14:46:25;12.40;;;10.17;;
16577;SDS011;8401;52.528;13.340;2023-04-15T14:48:50;11.17;;;9.97;;
16577;SDS011;8401;52.528;13.340;2023-04-15T14:51:16;11.50;;;10.00;;
16577;SDS011;8401;52.528;13.340;2023-04-15T14:53:42;11.40;;;9.93;;